Time;durP1;ratioP1;P1;durP2;ratioP2;P2;SDS_P1;SDS_P2;PMS_P1;PMS_P2;Temp;Humidity;BMP_temperature;BMP_pressure;BME280_temperature;BME280_humidity;BME280_pressure;Samples;Min_cycle;Max_cycle;Signal;HPM_P1;HPM_P2
2021/08/16 00:02:30;;;;;;;8.80;6.20;;;21.00;99.90;;;;;;2603152;46;20027;31
2021/08/16 00:05:02;;;;;;;9.27;6.53;;;21.00;99.90;;;;;;2603124;47;20105;31
2021/08/16 00:07:32;;;;;;;10.27;6.30;;;20.90;99.90;;;;;;2603025;54;20890;31
2021/08/16 00:10:04;;;;;;;10.00;6.00;;;20.90;99.90;;;;;;2603119;46;20827;31
2021/08/16 00:12:35;;;;;;;8.32;5.47;;;20.80;99.90;;;;;;2603075;54;20034;31
2021/08/16 00:15:07;;;;;;;7.43;5.45;;;20.70;99.90;;;;;;2603083;46;20834;31
2021/08/16 00:17:38;;;;;;;8.50;6.15;;;20.70;99.90;;;;;;2603152;46;20034;31
2021/08/16 00:20:09;;;;;;;8.15;5.90;;;20.70;99.90;;;;;;2602997;46;20026;31
2021/08/16 00:22:39;;;;;;;8.65;5.35;;;20.70;99.90;;;;;;2602908;47;20085;31
2021/08/16 00:25:10;;;;;;;11.88;6.07;;;20.70;99.90;;;;;;2603005;47;20038;31
2021/08/16 00:27:41;;;;;;;10.20;6.10;;;20.70;99.90;;;;;;2602945;54;20133;31
2021/08/16 00:30:13;;;;;;;9.52;5.60;;;20.70;99.90;;;;;;2603097;46;20843;31
2021/08/16 00:32:43;;;;;;;11.77;6.57;;;20.70;99.90;;;;;;2602985;46;20061;31
2021/08/16 00:35:15;;;;;;;8.80;5.90;;;20.70;99.90;;;;;;2602941;47;20045;31
2021/08/16 00:37:46;;;;;;;9.93;6.10;;;20.70;99.90;;;;;;2603014;54;20050;31
2021/08/16 00:40:17;;;;;;;7.95;6.25;;;20.70;99.90;;;;;;2603041;54;20862;31
2021/08/16 00:42:49;;;;;;;11.38;6.35;;;20.70;99.90;;;;;;2602967;54;20053;31
2021/08/16 00:45:19;;;;;;;9.15;6.00;;;20.70;99.90;;;;;;2690990;39;20392;31
2021/08/16 00:47:50;;;;;;;9.50;6.03;;;20.70;99.90;;;;;;2602985;47;20056;31
2021/08/16 00:50:21;;;;;;;9.45;5.38;;;20.60;99.90;;;;;;2603027;47;20973;31
2021/08/16 00:52:52;;;;;;;8.60;6.15;;;20.60;99.90;;;;;;2603085;47;20042;31
2021/08/16 00:55:23;;;;;;;7.45;5.63;;;20.50;99.90;;;;;;2602915;47;20026;31
2021/08/16 00:57:55;;;;;;;7.72;5.50;;;20.50;99.90;;;;;;2602993;47;20030;31
2021/08/16 01:00:26;;;;;;;7.80;5.93;;;20.50;99.90;;;;;;2602829;47;20942;31
2021/08/16 01:02:56;;;;;;;10.20;6.10;;;20.50;99.90;;;;;;2602849;47;20885;31
2021/08/16 01:05:27;;;;;;;7.85;5.90;;;20.40;99.90;;;;;;2603186;47;20250;31
2021/08/16 01:07:58;;;;;;;11.80;6.47;;;20.30;99.90;;;;;;2602832;54;20039;31
2021/08/16 01:10:33;;;;;;;8.80;5.82;;;20.30;99.90;;;;;;2602962;47;20034;31
2021/08/16 01:13:04;;;;;;;7.40;5.70;;;20.30;99.90;;;;;;2602830;47;20913;31
2021/08/16 01:15:36;;;;;;;11.75;6.50;;;20.20;99.90;;;;;;2602841;47;20118;31
2021/08/16 01:18:06;;;;;;;9.93;6.38;;;20.10;99.90;;;;;;2603235;47;20946;31
2021/08/16 01:20:37;;;;;;;7.80;5.83;;;20.10;99.90;;;;;;2602730;47;20069;31
2021/08/16 01:23:08;;;;;;;8.55;5.72;;;20.10;99.90;;;;;;2602781;47;20034;31
2021/08/16 01:25:41;;;;;;;7.75;6.20;;;20.10;99.90;;;;;;2602763;47;20097;31
2021/08/16 01:28:16;;;;;;;9.13;6.70;;;20.00;99.90;;;;;;2602789;47;20033;31
2021/08/16 01:30:52;;;;;;;7.55;5.45;;;20.00;99.90;;;;;;2603138;47;20255;31
2021/08/16 01:33:23;;;;;;;7.50;5.90;;;19.90;99.90;;;;;;2602731;47;20899;31
2021/08/16 01:35:54;;;;;;;9.57;6.55;;;19.90;99.90;;;;;;2602706;47;20902;31
2021/08/16 01:38:30;;;;;;;10.10;7.10;;;19.90;99.90;;;;;;2602816;47;20031;31
2021/08/16 01:41:00;;;;;;;9.40;5.80;;;19.80;99.90;;;;;;2602750;47;20034;31
2021/08/16 01:43:32;;;;;;;9.23;6.10;;;19.70;99.90;;;;;;2602665;47;25100;31
2021/08/16 01:46:04;;;;;;;8.10;5.60;;;19.70;99.90;;;;;;2602893;47;20921;31
2021/08/16 01:48:34;;;;;;;9.07;5.80;;;19.70;99.90;;;;;;2603542;46;20258;31
2021/08/16 01:51:05;;;;;;;7.55;5.03;;;19.70;99.90;;;;;;2603757;46;20916;31
2021/08/16 01:53:36;;;;;;;7.35;5.75;;;19.70;99.90;;;;;;2603552;46;20061;31
2021/08/16 01:56:07;;;;;;;11.05;7.35;;;19.70;99.90;;;;;;2603756;46;20038;31
2021/08/16 01:58:38;;;;;;;10.98;7.40;;;19.80;99.90;;;;;;2603438;46;20030;31
2021/08/16 02:01:09;;;;;;;9.07;7.47;;;19.70;99.90;;;;;;2603385;46;20077;31
2021/08/16 02:03:40;;;;;;;10.20;7.55;;;19.70;99.90;;;;;;2603883;46;20118;31
2021/08/16 02:06:13;;;;;;;8.93;7.45;;;19.70;99.90;;;;;;2603453;46;20065;31
2021/08/16 02:08:43;;;;;;;13.73;7.80;;;19.60;99.90;;;;;;2603364;47;20033;31
2021/08/16 02:11:15;;;;;;;9.35;6.65;;;19.60;99.90;;;;;;2603374;54;20844;31
2021/08/16 02:13:45;;;;;;;11.95;6.65;;;19.60;99.90;;;;;;2603417;54;20058;31
2021/08/16 02:16:16;;;;;;;8.10;6.60;;;19.60;99.90;;;;;;2603459;54;20026;31
2021/08/16 02:18:48;;;;;;;11.40;7.70;;;19.60;99.90;;;;;;2603777;46;20026;31
2021/08/16 02:21:18;;;;;;;22.15;12.05;;;19.60;99.90;;;;;;2603502;46;20030;31
2021/08/16 02:23:49;;;;;;;36.13;17.50;;;19.60;99.90;;;;;;2603410;46;20026;31
2021/08/16 02:26:23;;;;;;;33.70;16.90;;;19.60;99.90;;;;;;2603392;46;20030;31
2021/08/16 02:28:54;;;;;;;33.63;15.25;;;19.60;99.90;;;;;;2603327;46;20038;31
2021/08/16 02:31:25;;;;;;;30.90;15.95;;;19.60;99.90;;;;;;2603409;54;20038;31
2021/08/16 02:33:56;;;;;;;25.20;13.00;;;19.60;99.90;;;;;;2603375;46;20131;31
2021/08/16 02:36:27;;;;;;;37.38;17.02;;;19.60;99.90;;;;;;2603473;46;20818;31
2021/08/16 02:38:58;;;;;;;56.03;21.77;;;19.50;99.90;;;;;;2603454;46;20854;31
2021/08/16 02:41:30;;;;;;;87.80;31.55;;;19.50;99.90;;;;;;2603114;46;20085;31
2021/08/16 02:44:00;;;;;;;74.63;30.30;;;19.50;99.90;;;;;;2603317;54;20030;31
2021/08/16 02:46:35;;;;;;;65.40;26.55;;;19.50;99.90;;;;;;2603277;46;20816;31
2021/08/16 02:49:07;;;;;;;49.97;20.23;;;19.40;99.90;;;;;;2603297;46;20846;31
2021/08/16 02:51:37;;;;;;;33.10;14.50;;;19.40;99.90;;;;;;2603851;46;20081;31
2021/08/16 02:54:08;;;;;;;27.85;12.15;;;19.40;99.90;;;;;;2603319;54;20044;31
2021/08/16 02:56:39;;;;;;;33.70;15.20;;;19.30;99.90;;;;;;2603267;46;20807;31
2021/08/16 02:59:10;;;;;;;34.75;15.57;;;19.30;99.90;;;;;;2603239;46;20026;31
2021/08/16 03:01:41;;;;;;;40.25;17.38;;;19.20;99.90;;;;;;2603255;46;20038;31
2021/08/16 03:04:12;;;;;;;33.55;17.00;;;19.20;99.90;;;;;;2603276;46;20085;31
2021/08/16 03:06:43;;;;;;;33.53;16.60;;;19.20;99.90;;;;;;2603283;46;20057;31
2021/08/16 03:09:14;;;;;;;36.22;18.05;;;19.20;99.90;;;;;;2603566;46;20030;31
2021/08/16 03:11:45;;;;;;;28.92;13.43;;;19.10;99.90;;;;;;2603354;46;20088;31
2021/08/16 03:14:16;;;;;;;32.67;16.42;;;19.00;99.90;;;;;;2603204;46;20094;31
2021/08/16 03:16:48;;;;;;;31.90;14.02;;;19.10;99.90;;;;;;2603674;46;20026;31
2021/08/16 03:19:22;;;;;;;27.00;14.53;;;19.10;99.90;;;;;;2603593;46;20035;31
2021/08/16 03:21:54;;;;;;;29.63;13.85;;;19.00;99.90;;;;;;2603094;54;20086;31
2021/08/16 03:24:24;;;;;;;27.05;13.35;;;19.00;99.90;;;;;;2603219;46;20049;31
2021/08/16 03:26:55;;;;;;;28.50;15.15;;;19.00;99.90;;;;;;2603116;46;20063;31
2021/08/16 03:29:26;;;;;;;28.40;15.13;;;19.00;99.90;;;;;;2603143;46;20887;31
2021/08/16 03:32:00;;;;;;;27.23;12.87;;;19.00;99.90;;;;;;2603218;46;20821;31
2021/08/16 03:34:31;;;;;;;27.00;13.57;;;18.90;99.90;;;;;;2603194;47;20048;31
2021/08/16 03:37:03;;;;;;;24.38;13.60;;;18.90;99.90;;;;;;2602518;54;20061;31
2021/08/16 03:39:33;;;;;;;31.45;14.13;;;18.90;99.90;;;;;;2603198;46;20748;31
2021/08/16 03:42:04;;;;;;;23.13;12.27;;;18.90;99.90;;;;;;2603139;46;20859;31
2021/08/16 03:44:36;;;;;;;22.45;11.85;;;18.90;99.90;;;;;;2603153;46;20042;31
2021/08/16 03:47:06;;;;;;;22.63;12.45;;;18.90;99.90;;;;;;2603178;46;20046;31
2021/08/16 03:49:37;;;;;;;22.60;12.50;;;18.90;99.90;;;;;;2603586;46;20034;31
2021/08/16 03:52:09;;;;;;;21.50;11.55;;;18.90;99.90;;;;;;2603067;46;20104;31
2021/08/16 03:54:39;;;;;;;21.73;12.13;;;18.90;99.90;;;;;;2602442;54;20070;31
2021/08/16 03:57:10;;;;;;;16.40;10.38;;;18.90;99.90;;;;;;2603170;47;20920;31
2021/08/16 03:59:41;;;;;;;20.73;12.38;;;18.90;99.90;;;;;;2603122;46;20034;31
2021/08/16 04:02:12;;;;;;;20.87;11.83;;;18.80;99.90;;;;;;2603131;46;20026;31
2021/08/16 04:04:43;;;;;;;18.25;10.50;;;18.90;99.90;;;;;;2603071;54;21251;31
2021/08/16 04:07:14;;;;;;;15.43;10.43;;;18.90;99.90;;;;;;2603508;46;20084;31
2021/08/16 04:09:45;;;;;;;15.75;10.48;;;18.90;99.90;;;;;;2603314;46;20042;31
2021/08/16 04:12:16;;;;;;;23.00;11.20;;;18.90;99.90;;;;;;2603200;46;20893;31
2021/08/16 04:14:48;;;;;;;18.63;10.63;;;18.90;99.90;;;;;;2603079;46;20022;31
2021/08/16 04:17:20;;;;;;;14.18;8.95;;;18.90;99.90;;;;;;2603044;54;20161;31
2021/08/16 04:19:50;;;;;;;20.10;11.13;;;18.90;99.90;;;;;;2603008;46;20089;31
2021/08/16 04:22:21;;;;;;;20.03;11.13;;;19.00;99.90;;;;;;2602914;47;20032;31
2021/08/16 04:24:53;;;;;;;15.40;9.38;;;19.00;99.90;;;;;;2602962;54;20050;31
2021/08/16 04:27:23;;;;;;;13.05;8.30;;;19.00;99.90;;;;;;2603003;46;20957;31
2021/08/16 04:29:54;;;;;;;12.30;8.88;;;19.00;99.90;;;;;;2602921;47;20997;31
2021/08/16 04:32:26;;;;;;;14.55;9.75;;;19.00;99.90;;;;;;2603109;47;20852;31
2021/08/16 04:34:56;;;;;;;14.60;7.95;;;19.10;99.90;;;;;;2603060;47;20026;31
2021/08/16 04:37:27;;;;;;;11.27;8.43;;;19.10;99.90;;;;;;2603040;46;20944;31
2021/08/16 04:39:59;;;;;;;11.90;7.80;;;19.10;99.90;;;;;;2603000;46;20034;31
2021/08/16 04:42:29;;;;;;;12.18;7.82;;;19.10;99.90;;;;;;2602639;54;20894;31
2021/08/16 04:45:00;;;;;;;10.77;8.23;;;19.20;99.90;;;;;;2603006;54;20046;31
2021/08/16 04:47:32;;;;;;;11.18;7.38;;;19.20;99.90;;;;;;2603060;46;20929;31
2021/08/16 04:50:04;;;;;;;13.48;7.68;;;19.20;99.90;;;;;;2603303;46;20846;31
2021/08/16 04:52:34;;;;;;;8.90;6.60;;;19.30;99.90;;;;;;2602922;54;20109;31
2021/08/16 04:55:06;;;;;;;7.68;5.93;;;19.30;99.90;;;;;;2602883;54;20057;31
2021/08/16 04:57:37;;;;;;;9.02;7.00;;;19.30;99.90;;;;;;2602999;47;20034;31
2021/08/16 05:00:16;;;;;;;7.90;6.25;;;19.40;99.90;;;;;;2602842;47;20030;31
2021/08/16 05:02:46;;;;;;;7.85;5.70;;;19.50;99.90;;;;;;2602877;54;20049;31
2021/08/16 05:05:19;;;;;;;9.20;6.70;;;19.60;99.90;;;;;;2603233;47;20057;31
2021/08/16 05:07:53;;;;;;;9.55;5.75;;;19.60;99.90;;;;;;2602814;54;20785;31
2021/08/16 05:10:28;;;;;;;6.95;5.68;;;19.70;99.90;;;;;;2602720;54;21506;31
2021/08/16 05:13:00;;;;;;;10.50;6.20;;;19.70;99.90;;;;;;2602719;54;20934;31
2021/08/16 05:15:30;;;;;;;11.02;6.88;;;19.90;99.90;;;;;;2602696;54;20029;31
2021/08/16 05:18:03;;;;;;;8.77;5.97;;;19.90;99.90;;;;;;2602784;54;20030;31
2021/08/16 05:20:36;;;;;;;12.23;7.13;;;20.00;99.90;;;;;;2602744;47;20031;31
2021/08/16 05:23:07;;;;;;;9.27;6.47;;;20.20;99.90;;;;;;2701983;39;20333;31
2021/08/16 05:25:37;;;;;;;11.10;7.00;;;20.20;99.90;;;;;;2603663;46;20928;31
2021/08/16 05:28:09;;;;;;;9.55;6.40;;;20.30;99.90;;;;;;2603662;46;20031;31
2021/08/16 05:30:40;;;;;;;12.07;7.20;;;20.50;99.90;;;;;;2702070;39;20422;31
2021/08/16 05:33:10;;;;;;;10.93;6.43;;;20.80;99.90;;;;;;2603141;46;20034;31
2021/08/16 05:35:42;;;;;;;14.32;8.32;;;21.00;99.90;;;;;;2603567;46;20064;31
2021/08/16 05:38:13;;;;;;;16.52;10.20;;;21.20;99.90;;;;;;2603644;54;20767;31
2021/08/16 05:40:43;;;;;;;8.77;6.60;;;21.30;99.90;;;;;;2603614;54;20091;31
2021/08/16 05:43:14;;;;;;;13.55;6.75;;;21.40;99.90;;;;;;2603445;54;20098;31
2021/08/16 05:45:46;;;;;;;12.55;6.85;;;21.50;99.90;;;;;;2603008;46;20913;31
2021/08/16 05:48:17;;;;;;;11.35;7.05;;;21.60;99.90;;;;;;2603668;46;20854;31
2021/08/16 05:50:48;;;;;;;17.17;7.32;;;21.60;99.90;;;;;;2603923;46;20030;31
2021/08/16 05:53:20;;;;;;;16.50;7.15;;;21.70;99.90;;;;;;2603597;54;20022;31
2021/08/16 05:55:50;;;;;;;21.50;7.45;;;21.70;99.90;;;;;;2773480;31;26129;31
2021/08/16 05:58:21;;;;;;;18.93;6.53;;;21.80;99.90;;;;;;2603946;46;20038;31
2021/08/16 06:00:52;;;;;;;11.40;6.70;;;21.80;99.90;;;;;;2603527;54;20027;31
2021/08/16 06:03:23;;;;;;;15.57;6.88;;;21.80;99.90;;;;;;2603480;46;20031;31
2021/08/16 06:05:54;;;;;;;16.33;6.95;;;22.00;99.90;;;;;;2603551;46;20034;31
2021/08/16 06:08:25;;;;;;;11.40;6.75;;;22.20;99.90;;;;;;2603436;46;20031;31
2021/08/16 06:10:56;;;;;;;13.80;6.70;;;22.40;99.90;;;;;;2603556;54;20037;31
2021/08/16 06:13:27;;;;;;;54.72;9.98;;;22.60;99.90;;;;;;2603650;46;20903;31
2021/08/16 06:15:59;;;;;;;15.95;7.18;;;22.80;99.90;;;;;;2603651;46;20832;31
2021/08/16 06:18:30;;;;;;;10.18;6.55;;;22.90;99.90;;;;;;2603508;46;20779;31
2021/08/16 06:21:00;;;;;;;12.32;6.70;;;23.00;99.90;;;;;;2603447;54;20125;31
2021/08/16 06:23:33;;;;;;;9.15;5.32;;;23.20;99.90;;;;;;2603405;46;20905;31
2021/08/16 06:26:04;;;;;;;12.60;5.60;;;23.30;99.90;;;;;;2603439;54;20090;31
2021/08/16 06:28:34;;;;;;;18.20;5.90;;;23.50;99.90;;;;;;2603450;46;20026;31
2021/08/16 06:31:07;;;;;;;11.13;5.20;;;23.60;99.90;;;;;;2603499;46;20790;31
2021/08/16 06:33:40;;;;;;;14.48;6.47;;;23.80;99.90;;;;;;2603393;47;20824;31
2021/08/16 06:36:11;;;;;;;17.13;5.78;;;24.00;99.90;;;;;;2603496;47;20802;31
2021/08/16 06:38:45;;;;;;;16.50;4.55;;;24.40;99.90;;;;;;2608702;39;20342;31
2021/08/16 06:41:16;;;;;;;13.80;5.65;;;24.70;99.90;;;;;;2603544;46;20081;31
2021/08/16 06:43:47;;;;;;;14.20;4.55;;;25.10;99.90;;;;;;2603425;54;20819;31
2021/08/16 06:46:18;;;;;;;9.85;4.72;;;25.50;99.90;;;;;;2603477;46;20732;31
2021/08/16 06:48:48;;;;;;;7.85;4.28;;;25.80;99.90;;;;;;2603449;46;20842;31
2021/08/16 06:51:19;;;;;;;23.47;5.50;;;26.10;99.90;;;;;;2603303;46;20946;31
2021/08/16 06:53:51;;;;;;;9.40;3.70;;;26.60;99.90;;;;;;2603303;46;20250;31
2021/08/16 06:56:21;;;;;;;6.97;3.95;;;27.00;99.90;;;;;;2603207;54;20030;31
2021/08/16 06:58:53;;;;;;;7.57;4.13;;;27.40;99.90;;;;;;2603467;46;20920;31
2021/08/16 07:01:25;;;;;;;5.00;3.40;;;27.80;99.90;;;;;;2603286;47;20317;31
2021/08/16 07:03:57;;;;;;;6.53;4.00;;;28.20;99.90;;;;;;2603291;46;20941;31
2021/08/16 07:06:29;;;;;;;6.82;3.72;;;28.50;99.90;;;;;;2603294;46;20860;31
2021/08/16 07:09:01;;;;;;;7.65;3.95;;;28.80;99.90;;;;;;2603246;54;20023;31
2021/08/16 07:11:32;;;;;;;7.40;3.95;;;29.00;99.90;;;;;;2603275;54;20065;31
2021/08/16 07:14:02;;;;;;;5.80;3.90;;;29.20;99.90;;;;;;2603516;46;20486;31
2021/08/16 07:16:34;;;;;;;8.50;3.65;;;29.40;99.90;;;;;;2603307;54;20049;31
2021/08/16 07:19:04;;;;;;;7.70;4.40;;;29.70;99.90;;;;;;2603222;46;20059;31
2021/08/16 07:21:35;;;;;;;7.05;3.97;;;30.10;99.90;;;;;;2701726;39;20330;31
2021/08/16 07:24:07;;;;;;;8.05;3.60;;;30.30;99.90;;;;;;2603138;54;20095;31
2021/08/16 07:26:37;;;;;;;9.32;4.50;;;30.50;99.90;;;;;;2603341;46;20031;31
2021/08/16 07:29:08;;;;;;;9.60;3.75;;;30.60;99.90;;;;;;2603452;46;20031;31
2021/08/16 07:31:40;;;;;;;5.63;3.45;;;30.80;99.90;;;;;;2603140;54;20038;31
2021/08/16 07:34:10;;;;;;;10.10;3.75;;;30.90;99.90;;;;;;2603176;46;20030;31
2021/08/16 07:36:41;;;;;;;5.93;3.50;;;31.00;99.90;;;;;;2718306;31;20565;31
2021/08/16 07:39:13;;;;;;;5.93;3.45;;;31.20;99.90;;;;;;2603154;54;20842;31
2021/08/16 07:41:44;;;;;;;8.10;4.13;;;31.30;99.80;;;;;;2603108;46;20023;31
2021/08/16 07:46:59;;;;;;;7.03;3.28;;;31.40;99.60;;;;;;2646211;53;21184;31
2021/08/16 07:49:30;;;;;;;7.50;3.38;;;31.70;99.70;;;;;;2607109;54;20878;31
2021/08/16 07:52:01;;;;;;;9.52;4.05;;;31.80;98.50;;;;;;2607211;46;20078;31
2021/08/16 07:54:32;;;;;;;8.85;3.72;;;31.90;97.80;;;;;;2607299;54;20093;31
2021/08/16 07:57:06;;;;;;;6.05;3.95;;;32.00;97.50;;;;;;2607237;46;20026;31
2021/08/16 07:59:40;;;;;;;7.45;3.60;;;32.00;97.30;;;;;;2605944;46;20068;31
2021/08/16 08:02:11;;;;;;;6.55;3.50;;;32.00;97.10;;;;;;2605849;46;20105;31
2021/08/16 08:04:46;;;;;;;6.15;3.63;;;32.20;97.40;;;;;;2605564;46;20046;31
2021/08/16 08:07:17;;;;;;;11.15;3.40;;;32.50;96.10;;;;;;2606088;46;20069;31
2021/08/16 08:09:52;;;;;;;5.18;3.03;;;32.70;96.80;;;;;;2605921;46;20926;31
2021/08/16 08:12:25;;;;;;;13.25;3.45;;;32.90;95.60;;;;;;2605849;46;20068;31
2021/08/16 08:14:56;;;;;;;5.45;3.50;;;33.00;95.30;;;;;;2606559;46;20082;31
2021/08/16 08:17:27;;;;;;;5.60;3.58;;;33.30;95.40;;;;;;2607390;54;20093;31
2021/08/16 08:19:58;;;;;;;6.00;3.60;;;33.40;94.90;;;;;;2607562;54;20828;31
2021/08/16 08:22:33;;;;;;;6.25;3.75;;;33.60;94.30;;;;;;2607491;54;20038;31
2021/08/16 08:25:04;;;;;;;7.73;3.93;;;33.80;93.60;;;;;;2607793;46;20026;31
2021/08/16 08:27:35;;;;;;;5.75;3.63;;;33.90;93.10;;;;;;2607529;46;20057;31
2021/08/16 08:30:10;;;;;;;6.18;3.10;;;34.00;92.80;;;;;;2607901;46;20022;31
2021/08/16 08:32:55;;;;;;;7.65;3.40;;;34.00;92.20;;;;;;2607326;46;20030;31
2021/08/16 08:35:29;;;;;;;6.40;3.40;;;33.90;91.00;;;;;;2607522;46;20029;31
2021/08/16 08:38:00;;;;;;;6.10;2.95;;;34.00;91.50;;;;;;2607536;46;20029;31
2021/08/16 08:40:31;;;;;;;8.55;2.90;;;34.10;91.30;;;;;;2607693;46;20026;31
2021/08/16 08:43:05;;;;;;;4.70;3.03;;;34.20;91.30;;;;;;2607539;46;20026;31
2021/08/16 08:45:39;;;;;;;3.55;2.40;;;34.40;91.00;;;;;;2607320;54;20030;31
2021/08/16 08:48:10;;;;;;;4.43;2.72;;;34.40;89.50;;;;;;2607621;46;20034;31
2021/08/16 08:50:41;;;;;;;5.67;2.50;;;34.50;87.20;;;;;;2607508;46;21183;31
2021/08/16 08:53:12;;;;;;;4.00;2.30;;;34.70;86.40;;;;;;2607586;46;20001;31
2021/08/16 08:55:46;;;;;;;4.10;2.33;;;34.80;85.10;;;;;;2607484;46;20081;31
2021/08/16 08:58:25;;;;;;;5.80;2.10;;;34.90;85.30;;;;;;2604153;46;20038;31
2021/08/16 09:00:57;;;;;;;5.70;2.40;;;35.00;83.20;;;;;;2604018;46;20915;31
2021/08/16 09:03:28;;;;;;;7.00;3.10;;;35.20;82.70;;;;;;2604046;46;20074;31
2021/08/16 09:06:02;;;;;;;4.00;2.37;;;35.30;83.30;;;;;;2603801;46;20031;31
2021/08/16 09:08:38;;;;;;;5.20;2.00;;;35.40;83.40;;;;;;2604067;46;20034;31
2021/08/16 09:11:15;;;;;;;6.82;2.63;;;35.50;78.80;;;;;;2701371;31;20597;31
2021/08/16 09:14:05;;;;;;;6.00;2.40;;;35.60;81.30;;;;;;2603814;46;20022;31
2021/08/16 09:16:43;;;;;;;9.18;2.40;;;35.60;80.20;;;;;;2603885;46;20863;31
2021/08/16 09:19:19;;;;;;;4.40;2.60;;;35.50;80.80;;;;;;2603971;46;20839;31
2021/08/16 09:21:57;;;;;;;4.78;2.00;;;35.40;79.80;;;;;;2604217;46;20030;31
2021/08/16 09:24:31;;;;;;;2.47;2.20;;;35.40;81.50;;;;;;2603799;46;20058;31
2021/08/16 09:27:07;;;;;;;7.93;2.40;;;35.60;79.80;;;;;;2604001;46;20106;31
2021/08/16 09:29:48;;;;;;;6.97;2.53;;;35.40;79.10;;;;;;2603768;46;20034;31
2021/08/16 09:32:29;;;;;;;7.38;2.15;;;35.40;80.60;;;;;;2603808;46;20856;31
2021/08/16 09:35:06;;;;;;;6.03;2.75;;;35.40;79.40;;;;;;2603807;46;20057;31
2021/08/16 09:37:39;;;;;;;7.00;2.83;;;35.30;79.30;;;;;;2603848;46;20105;31
2021/08/16 09:40:14;;;;;;;12.63;2.38;;;35.30;78.20;;;;;;2603673;46;20027;31
2021/08/16 09:42:53;;;;;;;4.38;2.38;;;35.40;78.80;;;;;;2603859;46;20892;31
2021/08/16 09:45:39;;;;;;;6.57;2.30;;;35.30;76.90;;;;;;2603729;47;20977;31
2021/08/16 09:48:22;;;;;;;5.32;2.53;;;35.30;77.60;;;;;;2603720;46;20038;31
2021/08/16 09:51:00;;;;;;;4.45;2.30;;;35.40;77.10;;;;;;2603689;46;20029;31
2021/08/16 09:53:34;;;;;;;12.18;2.58;;;35.50;77.60;;;;;;2602994;46;20030;31
2021/08/16 09:56:16;;;;;;;5.63;2.37;;;35.60;75.20;;;;;;2603099;46;20030;31
2021/08/16 09:58:47;;;;;;;8.90;2.60;;;35.60;75.70;;;;;;2603726;46;20034;31
2021/08/16 10:01:18;;;;;;;5.00;2.53;;;35.80;76.20;;;;;;2603521;46;20094;31
2021/08/16 10:03:49;;;;;;;2.83;1.80;;;35.90;75.60;;;;;;2603631;54;20040;31
2021/08/16 10:06:21;;;;;;;5.97;2.03;;;36.00;76.10;;;;;;2603481;46;20958;31
2021/08/16 10:08:53;;;;;;;6.72;2.65;;;36.20;75.70;;;;;;2603235;54;20030;31
2021/08/16 10:11:24;;;;;;;10.90;2.50;;;36.20;76.10;;;;;;2603745;46;20033;31
2021/08/16 10:13:56;;;;;;;3.93;2.03;;;36.30;75.30;;;;;;2603683;46;20093;31
2021/08/16 10:16:32;;;;;;;4.68;2.40;;;36.30;74.10;;;;;;2603670;46;20026;31
2021/08/16 10:19:28;;;;;;;3.63;2.13;;;36.10;72.70;;;;;;2607802;39;20490;31
2021/08/16 10:22:00;;;;;;;;;;;36.10;74.70;;;;;;2604268;46;20093;31
2021/08/16 10:24:30;;;;;;;5.75;2.42;;;36.10;74.20;;;;;;2603497;46;20749;31
2021/08/16 10:27:08;;;;;;;4.20;2.70;;;36.00;74.20;;;;;;2603623;46;20027;31
2021/08/16 10:29:41;;;;;;;5.75;2.60;;;36.10;74.40;;;;;;2702389;39;20886;31
2021/08/16 10:32:18;;;;;;;5.70;2.38;;;36.10;74.10;;;;;;2603543;46;20038;31
2021/08/16 10:34:49;;;;;;;9.25;2.40;;;36.10;73.60;;;;;;2603463;54;21199;31
2021/08/16 10:37:34;;;;;;;6.67;2.83;;;36.00;74.20;;;;;;2603588;46;20057;31
2021/08/16 10:40:25;;;;;;;4.10;2.15;;;36.00;73.80;;;;;;2702126;39;20936;31
2021/08/16 10:42:55;;;;;;;5.68;2.58;;;36.10;74.10;;;;;;2603840;46;20060;31
2021/08/16 10:45:31;;;;;;;9.95;2.75;;;36.10;74.00;;;;;;2702461;39;20588;31
2021/08/16 10:48:06;;;;;;;4.05;2.78;;;36.00;73.00;;;;;;2603482;46;20022;31
2021/08/16 10:50:36;;;;;;;5.40;2.40;;;35.90;73.70;;;;;;2702296;39;21074;31
2021/08/16 10:53:08;;;;;;;58.50;6.90;;;35.90;74.00;;;;;;2603412;47;20089;31
2021/08/16 10:55:40;;;;;;;9.88;3.00;;;35.60;73.90;;;;;;2603668;46;20089;31
2021/08/16 10:58:12;;;;;;;9.13;2.85;;;35.40;73.50;;;;;;2603556;46;20924;31
2021/08/16 11:00:52;;;;;;;7.10;2.80;;;35.20;74.00;;;;;;2603545;47;20049;31
2021/08/16 11:03:27;;;;;;;13.15;3.00;;;34.90;74.80;;;;;;2603423;54;20032;31
2021/08/16 11:06:04;;;;;;;11.65;3.85;;;34.60;74.80;;;;;;2603507;46;20864;31
2021/08/16 11:08:35;;;;;;;7.05;2.97;;;34.50;77.00;;;;;;2603441;46;20870;31
2021/08/16 11:11:07;;;;;;;6.25;2.75;;;34.50;76.30;;;;;;2603615;47;20942;31
2021/08/16 11:13:38;;;;;;;9.50;2.70;;;34.50;75.60;;;;;;2603556;46;20357;31
2021/08/16 11:16:09;;;;;;;4.00;2.80;;;34.30;76.50;;;;;;2603809;46;20313;31
2021/08/16 11:18:42;;;;;;;4.18;2.70;;;34.10;75.80;;;;;;2603714;46;21275;31
2021/08/16 11:21:13;;;;;;;5.85;2.20;;;33.90;76.30;;;;;;2603332;46;20863;31
2021/08/16 11:23:54;;;;;;;55.03;6.47;;;33.80;76.80;;;;;;2603376;47;20022;31
2021/08/16 11:26:26;;;;;;;6.50;2.30;;;33.70;76.20;;;;;;2603607;46;20034;31
2021/08/16 11:29:05;;;;;;;3.60;2.70;;;33.80;75.90;;;;;;2603300;46;20030;31
2021/08/16 11:31:39;;;;;;;4.10;2.60;;;34.00;76.70;;;;;;2603722;46;20023;31
2021/08/16 11:34:10;;;;;;;4.60;2.17;;;34.20;75.40;;;;;;2603364;47;20863;31
2021/08/16 11:36:41;;;;;;;5.35;2.83;;;34.20;75.10;;;;;;2603515;47;20085;31
2021/08/16 11:39:13;;;;;;;4.00;2.30;;;34.10;75.30;;;;;;2603493;47;20027;31
2021/08/16 11:41:43;;;;;;;6.50;2.75;;;34.10;75.60;;;;;;2603327;47;20038;31
2021/08/16 11:44:15;;;;;;;2.45;2.15;;;34.10;76.20;;;;;;2603324;47;20038;31
2021/08/16 11:46:46;;;;;;;4.18;2.15;;;34.20;75.60;;;;;;2603184;54;20890;31
2021/08/16 11:49:17;;;;;;;5.05;2.30;;;34.40;76.20;;;;;;2603408;47;20026;31
2021/08/16 11:51:48;;;;;;;4.50;2.20;;;34.60;76.50;;;;;;2603547;47;20057;31
2021/08/16 11:54:27;;;;;;;25.20;3.80;;;34.70;76.10;;;;;;2701787;39;20436;31
2021/08/16 11:57:00;;;;;;;4.72;3.17;;;34.80;75.20;;;;;;2603425;47;20031;31
2021/08/16 11:59:55;;;;;;;9.43;2.97;;;34.80;75.40;;;;;;2603519;47;20061;31
2021/08/16 12:02:30;;;;;;;5.78;3.22;;;34.50;74.90;;;;;;2701664;39;20748;31
2021/08/16 12:05:01;;;;;;;5.43;2.67;;;34.40;76.00;;;;;;2603505;47;20876;31
2021/08/16 12:07:34;;;;;;;9.40;3.47;;;34.20;76.10;;;;;;2603045;54;20026;31
2021/08/16 12:10:16;;;;;;;10.05;3.65;;;34.10;76.20;;;;;;2603041;54;20033;31
2021/08/16 12:13:02;;;;;;;12.13;3.60;;;34.10;76.90;;;;;;2603150;47;21367;31
2021/08/16 12:15:41;;;;;;;6.32;3.88;;;33.90;77.90;;;;;;2603227;47;20742;31
2021/08/16 12:18:13;;;;;;;14.35;4.88;;;33.80;78.30;;;;;;2603354;47;20038;31
2021/08/16 12:20:45;;;;;;;45.05;6.32;;;33.70;78.30;;;;;;2603061;54;20026;31
2021/08/16 12:23:31;;;;;;;13.73;4.30;;;33.70;78.40;;;;;;2602949;54;20054;31
2021/08/16 12:26:14;;;;;;;6.65;3.70;;;33.70;78.60;;;;;;2602927;54;20022;31
2021/08/16 12:28:54;;;;;;;5.47;3.88;;;33.70;78.00;;;;;;2602940;54;20045;31
2021/08/16 12:31:39;;;;;;;9.80;4.80;;;33.70;78.50;;;;;;2690106;39;20516;31
2021/08/16 12:34:18;;;;;;;4.95;3.65;;;33.60;79.40;;;;;;2603675;54;20049;31
2021/08/16 12:37:03;;;;;;;7.13;3.73;;;33.60;79.60;;;;;;2603810;54;21196;31
2021/08/16 12:39:42;;;;;;;7.22;3.78;;;33.50;80.20;;;;;;2603743;54;19935;31
2021/08/16 12:42:27;;;;;;;8.55;3.85;;;33.40;80.30;;;;;;2603739;54;20026;31
2021/08/16 12:45:12;;;;;;;9.05;4.15;;;33.20;80.10;;;;;;2702484;39;21069;31
2021/08/16 12:48:08;;;;;;;10.77;4.03;;;33.00;80.10;;;;;;2603638;54;20026;31
2021/08/16 12:50:51;;;;;;;8.45;4.22;;;32.80;80.30;;;;;;2603745;54;20027;31
2021/08/16 12:53:31;;;;;;;8.65;3.92;;;32.40;80.60;;;;;;2603509;54;20418;31
2021/08/16 12:56:11;;;;;;;13.95;4.63;;;32.20;81.10;;;;;;2603607;54;20022;31
2021/08/16 12:58:57;;;;;;;125.05;12.60;;;31.90;82.00;;;;;;2603640;54;20022;31
2021/08/16 13:01:40;;;;;;;17.08;4.20;;;30.90;92.40;;;;;;2603723;54;20022;31
2021/08/16 13:04:24;;;;;;;8.13;3.58;;;29.40;95.00;;;;;;2608885;46;21317;31
2021/08/16 13:07:04;;;;;;;7.28;2.95;;;28.10;97.20;;;;;;2603565;54;20030;31
2021/08/16 13:09:44;;;;;;;9.85;3.50;;;27.00;98.90;;;;;;2603706;54;20033;31
2021/08/16 13:12:42;;;;;;;7.25;3.45;;;26.40;99.90;;;;;;2603605;54;20023;31
2021/08/16 13:15:26;;;;;;;10.82;3.38;;;25.90;99.90;;;;;;2603811;54;20085;31
2021/08/16 13:18:06;;;;;;;6.13;3.10;;;25.70;99.90;;;;;;2603486;54;20847;31
2021/08/16 13:20:48;;;;;;;6.38;3.45;;;25.60;99.90;;;;;;2603586;54;20031;31
2021/08/16 13:23:31;;;;;;;6.20;3.83;;;25.50;99.90;;;;;;2603437;54;20042;31
2021/08/16 13:26:13;;;;;;;6.55;3.80;;;25.50;99.90;;;;;;2603542;54;20046;31